Time;durP1;ratioP1;P1;durP2;ratioP2;P2;SDS_P1;SDS_P2;PMS_P1;PMS_P2;Temp;Humidity;BMP_temperature;BMP_pressure;BME280_temperature;BME280_humidity;BME280_pressure;Samples;Min_cycle;Max_cycle;Signal;HPM_P1;HPM_P2
2023/12/29 00:01:40;;;;;;;11.57;2.33;;;;;;;;;;5023174;28;20030;-61
2023/12/29 00:04:05;;;;;;;8.73;1.60;;;;;;;;;;5023264;28;20044;-61
2023/12/29 00:06:31;;;;;;;6.97;1.73;;;;;;;;;;5024144;28;20039;-61
2023/12/29 00:08:56;;;;;;;6.30;1.47;;;;;;;;;;5025882;28;20052;-61
2023/12/29 00:11:21;;;;;;;9.10;1.70;;;;;;;;;;5024673;28;20041;-61
2023/12/29 00:13:47;;;;;;;4.70;1.30;;;;;;;;;;5020923;28;20022;-61
2023/12/29 00:16:12;;;;;;;9.43;2.33;;;;;;;;;;5019224;28;20360;-61
2023/12/29 00:18:38;;;;;;;8.33;1.50;;;;;;;;;;5021209;28;20021;-61
2023/12/29 00:21:03;;;;;;;6.53;1.70;;;;;;;;;;5021771;28;20475;-61
2023/12/29 00:23:28;;;;;;;6.67;1.63;;;;;;;;;;5027710;28;20079;-61
2023/12/29 00:25:53;;;;;;;7.03;1.47;;;;;;;;;;5023119;28;20054;-61
2023/12/29 00:28:19;;;;;;;5.97;1.60;;;;;;;;;;5025224;28;20037;-61
2023/12/29 00:30:44;;;;;;;6.73;1.80;;;;;;;;;;5027481;28;20026;-61
2023/12/29 00:33:10;;;;;;;5.93;1.50;;;;;;;;;;5023400;28;20132;-61
2023/12/29 00:35:36;;;;;;;6.87;1.60;;;;;;;;;;5023309;28;20482;-61
2023/12/29 00:38:02;;;;;;;10.70;1.50;;;;;;;;;;5027528;28;20037;-64
2023/12/29 00:40:27;;;;;;;7.43;1.47;;;;;;;;;;5031382;28;20036;-61
2023/12/29 00:42:52;;;;;;;8.13;1.20;;;;;;;;;;5022189;28;20391;-61
2023/12/29 00:45:17;;;;;;;6.17;1.80;;;;;;;;;;5023294;28;20103;-61
2023/12/29 00:47:43;;;;;;;7.80;2.20;;;;;;;;;;5024098;28;20033;-61
2023/12/29 00:50:09;;;;;;;7.07;2.00;;;;;;;;;;5022659;28;20025;-61
2023/12/29 00:52:36;;;;;;;9.43;1.60;;;;;;;;;;5024304;28;20037;-61
2023/12/29 00:55:01;;;;;;;12.40;1.80;;;;;;;;;;5023279;28;20302;-60
2023/12/29 00:57:26;;;;;;;10.13;1.87;;;;;;;;;;5024452;28;20028;-61
2023/12/29 00:59:52;;;;;;;8.97;2.53;;;;;;;;;;5022482;28;20088;-61
2023/12/29 01:02:17;;;;;;;5.03;1.03;;;;;;;;;;5022464;28;20100;-61
2023/12/29 01:04:42;;;;;;;10.30;1.60;;;;;;;;;;5027124;28;20040;-61
2023/12/29 01:07:07;;;;;;;5.00;1.40;;;;;;;;;;5023787;28;20029;-63
2023/12/29 01:09:38;;;;;;;8.73;1.87;;;;;;;;;;5024051;28;20037;-62
2023/12/29 01:12:03;;;;;;;6.87;1.73;;;;;;;;;;5020031;28;20061;-63
2023/12/29 01:14:28;;;;;;;9.10;1.97;;;;;;;;;;5021296;28;20049;-63
2023/12/29 01:16:54;;;;;;;6.73;2.00;;;;;;;;;;5021062;28;20091;-63
2023/12/29 01:19:19;;;;;;;8.17;1.67;;;;;;;;;;5020368;28;20025;-63
2023/12/29 01:21:44;;;;;;;7.17;1.90;;;;;;;;;;5018307;28;20387;-63
2023/12/29 01:24:09;;;;;;;11.43;1.90;;;;;;;;;;5015596;28;20095;-63
2023/12/29 01:26:38;;;;;;;10.40;2.00;;;;;;;;;;5021791;28;20062;-63
2023/12/29 01:29:04;;;;;;;5.40;1.80;;;;;;;;;;5021382;28;20104;-62
2023/12/29 01:31:30;;;;;;;7.43;2.00;;;;;;;;;;5014351;28;20116;-63
2023/12/29 01:33:55;;;;;;;9.10;1.73;;;;;;;;;;5018633;28;20053;-62
2023/12/29 01:36:21;;;;;;;7.40;1.73;;;;;;;;;;5023828;28;20061;-62
2023/12/29 01:38:46;;;;;;;10.97;1.90;;;;;;;;;;5023251;28;20566;-63
2023/12/29 01:41:11;;;;;;;10.03;2.20;;;;;;;;;;5017200;28;20025;-62
2023/12/29 01:43:56;;;;;;;10.17;2.23;;;;;;;;;;5018785;28;20028;-62
2023/12/29 01:46:22;;;;;;;10.63;2.33;;;;;;;;;;5023136;28;20588;-63
2023/12/29 01:48:48;;;;;;;11.13;2.10;;;;;;;;;;5023798;28;20021;-62
2023/12/29 01:51:13;;;;;;;6.47;1.73;;;;;;;;;;5020493;28;20414;-62
2023/12/29 01:53:39;;;;;;;8.23;2.63;;;;;;;;;;5022150;28;20100;-62
2023/12/29 01:56:04;;;;;;;9.10;2.30;;;;;;;;;;5023784;28;20453;-62
2023/12/29 01:58:30;;;;;;;9.43;2.40;;;;;;;;;;5024116;28;20025;-62
2023/12/29 02:00:55;;;;;;;8.43;1.80;;;;;;;;;;5028024;28;20017;-63
2023/12/29 02:03:20;;;;;;;7.03;1.63;;;;;;;;;;5025363;28;20696;-62
2023/12/29 02:05:46;;;;;;;6.57;1.87;;;;;;;;;;5021148;28;20046;-62
2023/12/29 02:08:11;;;;;;;9.00;2.00;;;;;;;;;;5020464;28;20030;-62
2023/12/29 02:10:37;;;;;;;9.53;2.30;;;;;;;;;;5020094;28;20386;-63
2023/12/29 02:13:02;;;;;;;8.07;1.70;;;;;;;;;;5025108;28;20107;-62
2023/12/29 02:15:28;;;;;;;6.13;1.67;;;;;;;;;;5023123;28;20025;-63
2023/12/29 02:18:05;;;;;;;7.60;1.70;;;;;;;;;;5021482;28;20083;-63
2023/12/29 02:20:31;;;;;;;9.70;2.47;;;;;;;;;;5021792;28;20075;-63
2023/12/29 02:22:56;;;;;;;9.67;2.00;;;;;;;;;;5024530;28;20037;-63
2023/12/29 02:25:22;;;;;;;7.13;1.70;;;;;;;;;;5024628;28;20104;-63
2023/12/29 02:28:04;;;;;;;3.03;1.30;;;;;;;;;;5024283;28;20191;-63
2023/12/29 02:30:30;;;;;;;;;;;;;;;;;;5023878;28;20132;-63
2023/12/29 02:32:59;;;;;;;9.23;1.90;;;;;;;;;;5023906;28;19921;-64
2023/12/29 02:35:26;;;;;;;6.23;1.70;;;;;;;;;;5024012;28;20029;-64
2023/12/29 02:37:52;;;;;;;9.87;2.10;;;;;;;;;;5015750;28;20022;-64
2023/12/29 02:40:17;;;;;;;10.60;1.90;;;;;;;;;;5017069;28;20029;-64
2023/12/29 02:42:47;;;;;;;8.43;2.00;;;;;;;;;;5023198;28;20363;-64
2023/12/29 02:45:12;;;;;;;12.07;2.47;;;;;;;;;;5001906;28;20491;-63
2023/12/29 02:47:37;;;;;;;12.43;2.20;;;;;;;;;;5022104;28;20025;-63
2023/12/29 02:50:03;;;;;;;7.70;1.70;;;;;;;;;;5022778;28;20025;-64
2023/12/29 02:52:28;;;;;;;10.63;2.37;;;;;;;;;;5016855;28;20048;-63
2023/12/29 02:54:53;;;;;;;8.87;1.80;;;;;;;;;;5024593;28;20031;-63
2023/12/29 02:57:18;;;;;;;5.37;1.20;;;;;;;;;;5024138;28;20418;-63
2023/12/29 02:59:44;;;;;;;6.80;1.57;;;;;;;;;;5027751;28;20030;-62
2023/12/29 03:02:09;;;;;;;9.90;1.63;;;;;;;;;;5016592;28;20033;-63
2023/12/29 03:04:34;;;;;;;12.93;2.40;;;;;;;;;;5022140;28;20034;-63
2023/12/29 03:06:59;;;;;;;7.33;1.50;;;;;;;;;;5022954;28;20114;-63
2023/12/29 03:09:25;;;;;;;5.87;1.93;;;;;;;;;;5025708;28;20549;-63
2023/12/29 03:11:50;;;;;;;7.10;1.40;;;;;;;;;;5021524;28;20124;-63
2023/12/29 03:14:15;;;;;;;4.10;1.30;;;;;;;;;;5021921;28;20029;-63
2023/12/29 03:16:40;;;;;;;4.03;1.40;;;;;;;;;;5021372;28;20033;-62
2023/12/29 03:19:06;;;;;;;5.00;1.50;;;;;;;;;;5020113;28;20101;-62
2023/12/29 03:21:31;;;;;;;6.70;1.50;;;;;;;;;;5023441;28;20410;-62
2023/12/29 03:23:56;;;;;;;5.43;1.50;;;;;;;;;;5024069;28;20032;-63
2023/12/29 03:26:21;;;;;;;10.63;2.10;;;;;;;;;;5018603;28;20623;-63
2023/12/29 03:28:47;;;;;;;7.80;1.50;;;;;;;;;;5017361;28;20434;-63
2023/12/29 03:31:12;;;;;;;7.20;1.60;;;;;;;;;;5022078;28;20041;-63
2023/12/29 03:33:37;;;;;;;5.57;1.27;;;;;;;;;;5025018;28;20029;-62
2023/12/29 03:36:03;;;;;;;8.33;1.20;;;;;;;;;;5016896;28;20056;-62
2023/12/29 03:38:28;;;;;;;8.20;1.40;;;;;;;;;;5017966;28;20021;-63
2023/12/29 03:40:53;;;;;;;4.23;1.00;;;;;;;;;;5018393;28;20072;-62
2023/12/29 03:43:18;;;;;;;6.37;1.23;;;;;;;;;;5029388;28;20025;-62
2023/12/29 03:45:44;;;;;;;7.23;1.30;;;;;;;;;;5025276;28;20037;-62
2023/12/29 03:48:09;;;;;;;6.93;1.23;;;;;;;;;;5012991;28;20034;-63
2023/12/29 03:50:35;;;;;;;5.50;1.30;;;;;;;;;;5019827;28;20037;-62
2023/12/29 03:53:00;;;;;;;6.47;1.90;;;;;;;;;;5019584;28;20474;-62
2023/12/29 03:55:25;;;;;;;4.73;1.10;;;;;;;;;;5022258;28;20033;-62
2023/12/29 03:57:50;;;;;;;6.23;1.47;;;;;;;;;;5018428;28;20018;-62
2023/12/29 04:00:16;;;;;;;5.63;1.30;;;;;;;;;;5026490;28;20079;-63
2023/12/29 04:02:41;;;;;;;7.00;1.60;;;;;;;;;;5025694;28;20475;-63
2023/12/29 04:05:08;;;;;;;5.97;1.40;;;;;;;;;;5029769;28;20493;-63
2023/12/29 04:07:33;;;;;;;2.23;0.90;;;;;;;;;;5028321;28;20017;-64
2023/12/29 04:09:58;;;;;;;10.70;1.73;;;;;;;;;;5024545;28;20040;-63
2023/12/29 04:12:23;;;;;;;3.50;1.47;;;;;;;;;;5023647;28;20065;-62
2023/12/29 04:14:49;;;;;;;3.47;1.33;;;;;;;;;;5027484;28;20029;-63
2023/12/29 04:17:14;;;;;;;9.10;2.33;;;;;;;;;;5026309;28;20033;-63
2023/12/29 04:19:40;;;;;;;4.67;1.30;;;;;;;;;;5023697;28;20533;-63
2023/12/29 04:22:06;;;;;;;5.87;2.00;;;;;;;;;;5025337;28;20038;-62
2023/12/29 04:24:31;;;;;;;4.70;1.50;;;;;;;;;;5026309;28;20129;-62
2023/12/29 04:26:57;;;;;;;5.60;1.20;;;;;;;;;;5025351;28;20053;-63
2023/12/29 04:29:22;;;;;;;10.17;1.63;;;;;;;;;;5024122;28;20063;-63
2023/12/29 04:31:47;;;;;;;4.37;1.63;;;;;;;;;;5028288;28;20403;-63
2023/12/29 04:34:13;;;;;;;3.57;1.20;;;;;;;;;;5024365;28;20029;-62
2023/12/29 04:36:38;;;;;;;6.57;1.70;;;;;;;;;;5023827;28;20030;-63
2023/12/29 04:39:03;;;;;;;7.53;1.63;;;;;;;;;;5018162;28;20552;-63
2023/12/29 04:41:28;;;;;;;5.63;1.30;;;;;;;;;;5030726;28;20099;-63
2023/12/29 04:43:54;;;;;;;3.37;1.23;;;;;;;;;;5027008;28;20042;-63
2023/12/29 04:46:19;;;;;;;3.80;1.20;;;;;;;;;;5020853;28;20030;-63
2023/12/29 04:48:44;;;;;;;12.10;2.20;;;;;;;;;;5021280;28;20026;-64
2023/12/29 04:51:09;;;;;;;5.67;1.50;;;;;;;;;;5021592;28;20041;-64
2023/12/29 04:53:34;;;;;;;7.13;1.43;;;;;;;;;;5027186;28;20563;-64
2023/12/29 04:56:00;;;;;;;4.87;1.70;;;;;;;;;;5017090;28;20406;-63
2023/12/29 04:58:25;;;;;;;6.47;1.70;;;;;;;;;;5017310;28;20022;-64
2023/12/29 05:00:50;;;;;;;4.20;1.27;;;;;;;;;;5023041;28;20022;-64
2023/12/29 05:03:15;;;;;;;6.47;1.80;;;;;;;;;;5028154;28;20022;-64
2023/12/29 05:05:41;;;;;;;13.23;2.17;;;;;;;;;;5017311;28;20030;-64
2023/12/29 05:08:06;;;;;;;4.37;1.30;;;;;;;;;;5022484;28;20528;-64
2023/12/29 05:10:34;;;;;;;7.77;1.83;;;;;;;;;;5017812;28;20034;-64
2023/12/29 05:12:59;;;;;;;6.97;1.33;;;;;;;;;;5027157;28;20108;-64
2023/12/29 05:15:25;;;;;;;7.57;1.53;;;;;;;;;;5026996;28;20113;-64
2023/12/29 05:17:50;;;;;;;8.20;1.47;;;;;;;;;;5020767;28;20487;-64
2023/12/29 05:20:15;;;;;;;8.23;1.73;;;;;;;;;;5023840;28;20443;-64
2023/12/29 05:22:40;;;;;;;4.77;1.07;;;;;;;;;;5026733;28;20041;-64
2023/12/29 05:25:06;;;;;;;3.07;1.03;;;;;;;;;;5026533;28;20113;-63
2023/12/29 05:27:31;;;;;;;4.73;1.40;;;;;;;;;;5022365;28;20042;-64
2023/12/29 05:29:57;;;;;;;5.73;1.40;;;;;;;;;;5022437;28;20105;-64
2023/12/29 05:32:22;;;;;;;7.03;1.73;;;;;;;;;;5025393;28;20033;-64
2023/12/29 05:34:47;;;;;;;7.97;1.50;;;;;;;;;;5023201;28;20017;-64
2023/12/29 05:37:12;;;;;;;7.57;1.27;;;;;;;;;;5022913;28;20055;-64
2023/12/29 05:39:37;;;;;;;6.57;1.27;;;;;;;;;;5023327;28;20382;-64
2023/12/29 05:42:03;;;;;;;5.90;1.20;;;;;;;;;;5022270;28;20029;-64
2023/12/29 05:44:28;;;;;;;9.67;1.80;;;;;;;;;;5023499;28;20036;-64
2023/12/29 05:46:54;;;;;;;6.13;1.30;;;;;;;;;;5023843;28;20041;-61
2023/12/29 05:49:23;;;;;;;5.03;1.37;;;;;;;;;;5023689;28;20029;-61
2023/12/29 05:51:49;;;;;;;4.33;1.23;;;;;;;;;;5027697;28;20056;-61
2023/12/29 05:54:14;;;;;;;8.03;1.60;;;;;;;;;;5021756;28;20389;-61
2023/12/29 05:56:39;;;;;;;5.37;1.43;;;;;;;;;;5018106;28;20032;-62
2023/12/29 05:59:04;;;;;;;13.37;2.00;;;;;;;;;;5022046;28;20024;-63
2023/12/29 06:01:30;;;;;;;8.87;1.30;;;;;;;;;;5025874;28;20156;-62
2023/12/29 06:03:55;;;;;;;4.93;1.23;;;;;;;;;;5021687;28;20386;-61
2023/12/29 06:06:20;;;;;;;7.23;1.37;;;;;;;;;;5021531;28;20034;-61
2023/12/29 06:08:46;;;;;;;6.53;1.20;;;;;;;;;;5026250;28;20036;-62
2023/12/29 06:11:14;;;;;;;5.33;1.40;;;;;;;;;;5026531;28;20039;-61
2023/12/29 06:13:39;;;;;;;6.67;1.50;;;;;;;;;;5022823;28;20151;-61
2023/12/29 06:16:05;;;;;;;11.33;1.80;;;;;;;;;;5020752;28;20052;-61
2023/12/29 06:18:30;;;;;;;6.43;1.67;;;;;;;;;;5016735;28;20109;-61
2023/12/29 06:20:55;;;;;;;7.03;1.37;;;;;;;;;;5019762;28;20029;-61
2023/12/29 06:23:21;;;;;;;9.43;2.10;;;;;;;;;;5026149;28;20036;-61
2023/12/29 06:25:46;;;;;;;11.23;1.53;;;;;;;;;;5020648;28;20050;-61
2023/12/29 06:28:11;;;;;;;10.53;1.73;;;;;;;;;;5020218;28;20112;-61
2023/12/29 06:30:36;;;;;;;8.63;2.00;;;;;;;;;;5023644;28;20014;-61
2023/12/29 06:33:02;;;;;;;16.13;2.07;;;;;;;;;;5026011;28;20352;-62
2023/12/29 06:35:27;;;;;;;8.57;2.00;;;;;;;;;;5022614;28;20041;-61
2023/12/29 06:37:52;;;;;;;12.90;1.93;;;;;;;;;;5022702;28;20414;-62
2023/12/29 06:40:18;;;;;;;8.43;1.40;;;;;;;;;;5023641;28;20045;-62
2023/12/29 06:42:43;;;;;;;9.53;1.80;;;;;;;;;;5024411;28;20483;-61
2023/12/29 06:45:08;;;;;;;5.80;1.23;;;;;;;;;;5026832;28;20108;-61
2023/12/29 06:47:34;;;;;;;6.20;1.50;;;;;;;;;;5026175;28;20036;-61
2023/12/29 06:49:59;;;;;;;8.17;1.40;;;;;;;;;;5024937;28;20096;-61
2023/12/29 06:52:25;;;;;;;6.43;1.50;;;;;;;;;;5019900;28;20037;-61
2023/12/29 06:54:50;;;;;;;8.57;1.90;;;;;;;;;;5018940;28;20109;-61
2023/12/29 06:57:16;;;;;;;11.03;1.60;;;;;;;;;;5026204;28;20403;-60
2023/12/29 06:59:41;;;;;;;9.43;1.60;;;;;;;;;;5025822;28;20497;-61
2023/12/29 07:02:07;;;;;;;11.73;2.13;;;;;;;;;;5019257;28;20021;-61
2023/12/29 07:04:32;;;;;;;6.47;1.20;;;;;;;;;;5017940;28;20029;-62
2023/12/29 07:07:00;;;;;;;8.37;1.47;;;;;;;;;;5027403;28;20037;-61
2023/12/29 07:09:25;;;;;;;8.93;1.50;;;;;;;;;;5027106;28;20430;-61
2023/12/29 07:11:50;;;;;;;9.50;2.43;;;;;;;;;;5013756;28;20030;-61
2023/12/29 07:14:15;;;;;;;10.73;1.90;;;;;;;;;;5016295;28;20487;-62
2023/12/29 07:16:41;;;;;;;9.17;1.77;;;;;;;;;;5016636;28;20467;-61
2023/12/29 07:19:06;;;;;;;12.10;2.40;;;;;;;;;;5015458;28;20030;-60
2023/12/29 07:21:31;;;;;;;17.60;2.07;;;;;;;;;;5017175;28;20433;-62
2023/12/29 07:23:57;;;;;;;12.77;2.33;;;;;;;;;;5016538;28;20030;-61
2023/12/29 07:26:22;;;;;;;8.23;2.37;;;;;;;;;;5016155;28;20058;-61
2023/12/29 07:28:47;;;;;;;8.77;2.10;;;;;;;;;;5020069;28;20152;-61
2023/12/29 07:31:12;;;;;;;14.90;3.00;;;;;;;;;;5020779;28;20033;-60
2023/12/29 07:33:38;;;;;;;14.77;2.40;;;;;;;;;;5020944;28;20112;-61
2023/12/29 07:36:03;;;;;;;5.93;1.37;;;;;;;;;;5024427;28;20474;-61
2023/12/29 07:38:28;;;;;;;10.47;2.03;;;;;;;;;;5023090;28;20021;-61
2023/12/29 07:40:54;;;;;;;9.70;2.27;;;;;;;;;;5026998;28;20030;-61
2023/12/29 07:43:19;;;;;;;9.33;2.10;;;;;;;;;;5025042;28;20021;-62
2023/12/29 07:45:44;;;;;;;16.93;2.60;;;;;;;;;;5023347;28;20367;-62
2023/12/29 07:48:09;;;;;;;12.10;1.70;;;;;;;;;;5025480;28;20040;-61
2023/12/29 07:50:35;;;;;;;11.67;2.43;;;;;;;;;;5023791;28;20022;-61
2023/12/29 07:53:02;;;;;;;12.00;2.27;;;;;;;;;;5025228;28;20478;-61
2023/12/29 07:55:28;;;;;;;12.37;3.23;;;;;;;;;;5025981;28;20017;-61
2023/12/29 07:57:53;;;;;;;9.83;2.10;;;;;;;;;;5027260;28;20108;-61
2023/12/29 08:00:19;;;;;;;13.63;2.20;;;;;;;;;;5023929;28;20053;-61
2023/12/29 08:02:44;;;;;;;8.63;1.80;;;;;;;;;;5024024;28;20037;-61
2023/12/29 08:05:10;;;;;;;9.97;1.90;;;;;;;;;;5024349;28;20458;-61
2023/12/29 08:07:37;;;;;;;15.10;3.43;;;;;;;;;;5032098;28;20052;-63
2023/12/29 08:10:04;;;;;;;11.80;2.53;;;;;;;;;;5027166;28;20544;-61
2023/12/29 08:12:30;;;;;;;14.17;1.93;;;;;;;;;;5023133;28;20109;-61
2023/12/29 08:14:55;;;;;;;12.83;2.27;;;;;;;;;;5025442;28;20116;-61
2023/12/29 08:17:20;;;;;;;10.10;2.30;;;;;;;;;;5022673;28;21006;-62
2023/12/29 08:19:45;;;;;;;11.80;2.03;;;;;;;;;;5024511;28;20044;-62
2023/12/29 08:22:12;;;;;;;15.87;2.20;;;;;;;;;;5028093;28;20034;-61
2023/12/29 08:24:39;;;;;;;17.37;2.10;;;;;;;;;;5022205;28;20502;-61
2023/12/29 08:27:05;;;;;;;10.47;2.00;;;;;;;;;;5016472;28;20072;-62
2023/12/29 08:29:30;;;;;;;12.60;2.43;;;;;;;;;;5022052;28;20026;-61
2023/12/29 08:31:55;;;;;;;12.60;1.83;;;;;;;;;;5021803;28;20040;-61
2023/12/29 08:34:20;;;;;;;8.93;1.73;;;;;;;;;;5016867;28;20430;-61
2023/12/29 08:36:46;;;;;;;9.63;1.90;;;;;;;;;;5019793;28;20022;-61
2023/12/29 08:39:11;;;;;;;7.20;1.60;;;;;;;;;;5029151;28;20034;-61
2023/12/29 08:41:37;;;;;;;7.83;1.77;;;;;;;;;;5026780;28;20390;-61
2023/12/29 08:44:03;;;;;;;11.47;2.00;;;;;;;;;;5027258;28;20034;-61
2023/12/29 08:46:29;;;;;;;10.90;1.80;;;;;;;;;;5021542;28;20386;-61
2023/12/29 08:48:54;;;;;;;8.80;1.60;;;;;;;;;;5029191;28;20022;-61
2023/12/29 08:51:20;;;;;;;14.60;2.37;;;;;;;;;;5026791;28;20037;-64
2023/12/29 08:53:45;;;;;;;7.83;1.90;;;;;;;;;;5026513;28;20056;-61
2023/12/29 08:56:10;;;;;;;7.23;1.80;;;;;;;;;;5023531;28;20084;-61
2023/12/29 08:58:35;;;;;;;7.93;2.00;;;;;;;;;;5029081;28;20053;-61
2023/12/29 09:01:01;;;;;;;6.13;1.60;;;;;;;;;;5026204;28;20029;-61
2023/12/29 09:03:26;;;;;;;10.13;2.50;;;;;;;;;;5024236;28;20030;-61
2023/12/29 09:05:51;;;;;;;6.73;1.67;;;;;;;;;;5023983;28;20068;-61
2023/12/29 09:08:16;;;;;;;10.00;1.80;;;;;;;;;;5021459;28;20029;-61
2023/12/29 09:10:42;;;;;;;8.43;1.60;;;;;;;;;;5023174;28;20030;-61
2023/12/29 09:13:07;;;;;;;8.97;2.00;;;;;;;;;;5027055;28;20025;-61
2023/12/29 09:15:34;;;;;;;7.03;1.30;;;;;;;;;;5025605;28;20494;-60
2023/12/29 09:17:59;;;;;;;9.90;1.70;;;;;;;;;;5022458;28;20029;-60
2023/12/29 09:20:24;;;;;;;9.07;1.90;;;;;;;;;;5021977;28;20067;-59
2023/12/29 09:22:50;;;;;;;5.87;1.30;;;;;;;;;;5021147;28;20030;-61
2023/12/29 09:25:15;;;;;;;9.30;1.23;;;;;;;;;;5022730;28;20045;-60
2023/12/29 09:27:40;;;;;;;9.83;1.63;;;;;;;;;;5022654;28;20030;-60
2023/12/29 09:30:06;;;;;;;8.90;1.70;;;;;;;;;;5013880;28;20395;-61
2023/12/29 09:32:31;;;;;;;6.57;1.30;;;;;;;;;;5018744;28;20034;-61
2023/12/29 09:34:57;;;;;;;7.37;1.23;;;;;;;;;;5013530;28;20101;-61
2023/12/29 09:37:22;;;;;;;8.90;1.40;;;;;;;;;;5018893;28;20034;-60
2023/12/29 09:39:47;;;;;;;5.30;1.27;;;;;;;;;;5019165;28;20470;-64
2023/12/29 09:42:17;;;;;;;8.90;1.27;;;;;;;;;;5020010;28;20026;-61
2023/12/29 09:44:43;;;;;;;8.87;1.30;;;;;;;;;;5016489;28;20029;-61
2023/12/29 09:47:09;;;;;;;4.63;1.00;;;;;;;;;;5024593;28;20733;-61
2023/12/29 09:49:41;;;;;;;7.30;1.17;;;;;;;;;;5020942;28;20025;-61
2023/12/29 09:52:06;;;;;;;;;;;;;;;;;;5021320;28;20045;-61
2023/12/29 09:54:32;;;;;;;4.73;1.30;;;;;;;;;;5016733;28;20284;-64
2023/12/29 09:56:57;;;;;;;6.10;1.23;;;;;;;;;;5019769;28;20028;-61
2023/12/29 09:59:23;;;;;;;7.20;1.13;;;;;;;;;;5026286;28;20032;-60
2023/12/29 10:01:50;;;;;;;6.60;1.20;;;;;;;;;;5020988;28;20053;-62
2023/12/29 10:04:15;;;;;;;4.07;1.30;;;;;;;;;;5019889;28;20029;-61
2023/12/29 10:06:42;;;;;;;6.50;1.20;;;;;;;;;;5022394;28;20433;-61
2023/12/29 10:09:10;;;;;;;6.60;0.83;;;;;;;;;;5020397;28;20053;-61
2023/12/29 10:11:37;;;;;;;8.57;1.30;;;;;;;;;;5020547;28;20374;-61
2023/12/29 10:14:05;;;;;;;2.87;0.90;;;;;;;;;;5023932;28;20021;-60
2023/12/29 10:16:35;;;;;;;3.73;1.03;;;;;;;;;;5027265;28;20018;-61
2023/12/29 10:19:10;;;;;;;5.13;1.43;;;;;;;;;;5020412;28;20022;-61
2023/12/29 10:21:55;;;;;;;4.77;1.00;;;;;;;;;;5023358;28;20148;-60
2023/12/29 10:24:22;;;;;;;3.10;0.87;;;;;;;;;;5026226;28;20037;-61
2023/12/29 10:26:48;;;;;;;4.17;0.73;;;;;;;;;;4982424;28;1203834;-60
2023/12/29 10:29:13;;;;;;;4.17;0.80;;;;;;;;;;5018744;28;20029;-64
2023/12/29 10:31:39;;;;;;;5.10;1.07;;;;;;;;;;5019390;28;20513;-61
2023/12/29 10:34:20;;;;;;;3.97;1.03;;;;;;;;;;5021928;28;20021;-60
2023/12/29 10:36:46;;;;;;;9.40;1.52;;;;;;;;;;5028876;28;20484;-61
2023/12/29 10:39:11;;;;;;;4.63;1.27;;;;;;;;;;5021138;28;20053;-61
2023/12/29 10:41:36;;;;;;;2.53;0.63;;;;;;;;;;5025168;28;20131;-60
2023/12/29 10:44:06;;;;;;;5.30;1.00;;;;;;;;;;5020979;28;20041;-60
2023/12/29 10:46:31;;;;;;;5.23;0.97;;;;;;;;;;5017015;28;20528;-60
2023/12/29 10:49:07;;;;;;;3.60;0.67;;;;;;;;;;5017145;28;20026;-61
2023/12/29 10:51:32;;;;;;;2.57;0.80;;;;;;;;;;5023738;28;20037;-62
2023/12/29 10:53:57;;;;;;;2.67;0.67;;;;;;;;;;5020766;28;20053;-62
2023/12/29 10:56:23;;;;;;;1.73;0.60;;;;;;;;;;5024044;28;20018;-62
2023/12/29 10:59:02;;;;;;;2.07;0.80;;;;;;;;;;5020686;28;20021;-62
2023/12/29 11:01:28;;;;;;;4.20;0.93;;;;;;;;;;5018427;28;20162;-62
2023/12/29 11:04:03;;;;;;;1.70;0.60;;;;;;;;;;5016237;28;20508;-62
2023/12/29 11:06:29;;;;;;;2.33;0.80;;;;;;;;;;5023160;28;20013;-63
2023/12/29 11:08:55;;;;;;;4.57;0.70;;;;;;;;;;5024768;28;20034;-63
2023/12/29 11:11:21;;;;;;;3.67;0.80;;;;;;;;;;5027650;28;20427;-75
2023/12/29 11:13:46;;;;;;;0.10;0.10;;;;;;;;;;5023220;28;20021;-66
2023/12/29 11:16:12;;;;;;;0.20;0.20;;;;;;;;;;5027493;28;20025;-67
2023/12/29 11:18:37;;;;;;;0.10;0.10;;;;;;;;;;5028589;28;20105;-65
2023/12/29 11:21:03;;;;;;;0.57;0.53;;;;;;;;;;5028097;28;20014;-67
2023/12/29 11:23:28;;;;;;;0.10;0.10;;;;;;;;;;5025660;28;20061;-64
2023/12/29 11:25:54;;;;;;;0.10;0.10;;;;;;;;;;5026119;28;20064;-63
2023/12/29 11:28:19;;;;;;;0.20;0.20;;;;;;;;;;5023530;28;20764;-63
2023/12/29 11:30:45;;;;;;;0.10;0.10;;;;;;;;;;5022940;28;20533;-69
2023/12/29 11:33:15;;;;;;;0.10;0.10;;;;;;;;;;5026455;28;20432;-66
2023/12/29 11:35:55;;;;;;;0.20;0.20;;;;;;;;;;5026767;28;20063;-63
2023/12/29 11:38:23;;;;;;;0.20;0.20;;;;;;;;;;5021241;28;20463;-63
2023/12/29 11:40:52;;;;;;;0.20;0.20;;;;;;;;;;5024989;28;20016;-63
2023/12/29 11:43:18;;;;;;;0.20;0.20;;;;;;;;;;5030576;28;20488;-63
2023/12/29 11:45:44;;;;;;;0.10;0.10;;;;;;;;;;5024636;28;20018;-63
2023/12/29 11:48:11;;;;;;;0.20;0.20;;;;;;;;;;5019506;28;20100;-63
2023/12/29 11:50:38;;;;;;;0.20;0.20;;;;;;;;;;5021286;28;20025;-65
2023/12/29 11:53:04;;;;;;;0.10;0.10;;;;;;;;;;5023672;28;20017;-63
2023/12/29 11:55:38;;;;;;;0.20;0.20;;;;;;;;;;5022578;28;20072;-63
2023/12/29 11:58:07;;;;;;;0.20;0.20;;;;;;;;;;5019327;28;20038;-63
2023/12/29 12:00:42;;;;;;;0.20;0.20;;;;;;;;;;5024642;28;20178;-63
2023/12/29 12:03:27;;;;;;;0.20;0.20;;;;;;;;;;5030840;28;20032;-70
2023/12/29 12:05:54;;;;;;;0.40;0.40;;;;;;;;;;5022980;28;20016;-67
2023/12/29 12:08:29;;;;;;;0.30;0.30;;;;;;;;;;5024037;28;20025;-64
2023/12/29 12:10:55;;;;;;;0.20;0.20;;;;;;;;;;5025691;28;20088;-69
2023/12/29 12:13:39;;;;;;;0.20;0.20;;;;;;;;;;5027482;28;20029;-70
2023/12/29 12:16:04;;;;;;;0.10;0.10;;;;;;;;;;5026562;28;20034;-70
2023/12/29 12:18:30;;;;;;;0.20;0.20;;;;;;;;;;5022607;28;20105;-73
2023/12/29 12:20:55;;;;;;;0.20;0.20;;;;;;;;;;5023874;28;20032;-72
2023/12/29 12:23:22;;;;;;;0.40;0.40;;;;;;;;;;5022982;28;20030;-64
2023/12/29 12:25:49;;;;;;;0.40;0.40;;;;;;;;;;5026343;28;20049;-71
2023/12/29 12:28:15;;;;;;;0.67;0.67;;;;;;;;;;5025396;28;20030;-65
2023/12/29 12:30:40;;;;;;;0.10;0.10;;;;;;;;;;5025226;28;20593;-64
2023/12/29 12:33:06;;;;;;;0.10;0.10;;;;;;;;;;5024488;28;20029;-63
2023/12/29 12:35:31;;;;;;;0.20;0.20;;;;;;;;;;5024915;28;20017;-64
2023/12/29 12:38:22;;;;;;;0.20;0.20;;;;;;;;;;5023609;28;20049;-63
2023/12/29 12:40:47;;;;;;;0.43;0.43;;;;;;;;;;5026943;28;20026;-64
2023/12/29 12:43:15;;;;;;;0.10;0.10;;;;;;;;;;5022388;28;20536;-67
2023/12/29 12:45:42;;;;;;;0.20;0.20;;;;;;;;;;5027641;28;20028;-66
2023/12/29 12:48:19;;;;;;;0.30;0.30;;;;;;;;;;5022252;28;20079;-64
2023/12/29 12:50:45;;;;;;;0.90;0.90;;;;;;;;;;5025563;28;20080;-62
2023/12/29 12:53:11;;;;;;;0.10;0.10;;;;;;;;;;5027860;28;20029;-62
2023/12/29 12:55:37;;;;;;;0.30;0.30;;;;;;;;;;5020127;28;20017;-62
2023/12/29 12:58:03;;;;;;;0.20;0.20;;;;;;;;;;5021422;28;20033;-62
2023/12/29 13:00:29;;;;;;;0.20;0.20;;;;;;;;;;5018881;28;20049;-62
2023/12/29 13:02:54;;;;;;;0.13;0.13;;;;;;;;;;5024107;28;20029;-62
2023/12/29 13:05:21;;;;;;;0.20;0.20;;;;;;;;;;5024222;28;20060;-61
2023/12/29 13:07:46;;;;;;;0.10;0.10;;;;;;;;;;5018080;28;20096;-62
2023/12/29 13:10:11;;;;;;;0.13;0.13;;;;;;;;;;5021606;28;20128;-62
2023/12/29 13:12:36;;;;;;;0.30;0.30;;;;;;;;;;5025824;28;20029;-62
2023/12/29 13:15:08;;;;;;;0.10;0.10;;;;;;;;;;5028476;28;20099;-61
2023/12/29 13:17:33;;;;;;;0.20;0.20;;;;;;;;;;5021558;28;20382;-61
2023/12/29 13:19:59;;;;;;;2.83;0.97;;;;;;;;;;5019914;28;20025;-63
2023/12/29 13:22:24;;;;;;;0.13;0.13;;;;;;;;;;5025055;28;20030;-61
2023/12/29 13:24:49;;;;;;;0.57;0.57;;;;;;;;;;5026739;28;20025;-62
2023/12/29 13:27:15;;;;;;;0.20;0.20;;;;;;;;;;5020909;28;20445;-61
2023/12/29 13:29:42;;;;;;;0.47;0.37;;;;;;;;;;5020012;28;20072;-61
2023/12/29 13:32:12;;;;;;;0.20;0.20;;;;;;;;;;5022548;28;20374;-61
2023/12/29 13:35:03;;;;;;;0.60;0.50;;;;;;;;;;5023401;28;20025;-61
2023/12/29 13:37:37;;;;;;;0.13;0.13;;;;;;;;;;5024307;28;20022;-61
2023/12/29 13:40:12;;;;;;;0.20;0.20;;;;;;;;;;5019846;28;20296;-61
2023/12/29 13:42:40;;;;;;;0.30;0.30;;;;;;;;;;5022513;28;20508;-61
2023/12/29 13:45:07;;;;;;;0.27;0.27;;;;;;;;;;5022644;28;20025;-61
2023/12/29 13:47:33;;;;;;;0.30;0.27;;;;;;;;;;5024536;28;20045;-63
2023/12/29 13:49:58;;;;;;;0.50;0.50;;;;;;;;;;5021707;28;20045;-61
2023/12/29 13:52:23;;;;;;;6.20;1.30;;;;;;;;;;5024798;28;20029;-61
2023/12/29 13:54:48;;;;;;;4.43;1.07;;;;;;;;;;5024141;28;20020;-62
2023/12/29 13:57:14;;;;;;;5.43;1.20;;;;;;;;;;5024591;28;20040;-65
2023/12/29 13:59:39;;;;;;;4.57;1.17;;;;;;;;;;5025229;28;20505;-61
2023/12/29 14:02:23;;;;;;;3.23;1.20;;;;;;;;;;5024467;28;20068;-61
2023/12/29 14:04:48;;;;;;;2.77;1.10;;;;;;;;;;5019716;28;20045;-62
2023/12/29 14:07:14;;;;;;;4.57;1.13;;;;;;;;;;5022032;28;20439;-61
2023/12/29 14:09:40;;;;;;;4.03;1.30;;;;;;;;;;5024636;28;20068;-61
2023/12/29 14:12:05;;;;;;;4.13;1.03;;;;;;;;;;5024283;28;20044;-61
2023/12/29 14:14:31;;;;;;;6.03;1.30;;;;;;;;;;5023781;28;20018;-61
2023/12/29 14:16:57;;;;;;;7.83;1.43;;;;;;;;;;5018122;28;20444;-61
2023/12/29 14:19:22;;;;;;;2.63;1.10;;;;;;;;;;5026514;28;20021;-61
2023/12/29 14:21:50;;;;;;;2.93;1.17;;;;;;;;;;5026565;28;20034;-61
2023/12/29 14:24:16;;;;;;;7.50;1.63;;;;;;;;;;5019546;28;20052;-61
2023/12/29 14:27:02;;;;;;;5.97;1.40;;;;;;;;;;5024260;28;20077;-61
2023/12/29 14:29:28;;;;;;;4.77;1.40;;;;;;;;;;5015371;28;20028;-61
2023/12/29 14:31:55;;;;;;;6.30;1.40;;;;;;;;;;5026199;28;20409;-63
2023/12/29 14:34:21;;;;;;;4.93;1.50;;;;;;;;;;5009944;28;20022;-61
2023/12/29 14:36:46;;;;;;;6.33;1.67;;;;;;;;;;5018818;28;20364;-61